Time;durP1;ratioP1;P1;durP2;ratioP2;P2;SDS_P1;SDS_P2;PMS_P1;PMS_P2;Temp;Humidity;BMP_temperature;BMP_pressure;BME280_temperature;BME280_humidity;BME280_pressure;Samples;Min_cycle;Max_cycle;Signal;HPM_P1;HPM_P2
2022/07/24 00:00:24;;;;;;;1.10;1.00;;;18.50;99.90;;;;;;5112664;28;20560;-62
2022/07/24 00:02:51;;;;;;;1.37;1.07;;;18.40;99.90;;;;;;5112787;28;20893;-62
2022/07/24 00:05:17;;;;;;;1.77;1.17;;;18.40;99.90;;;;;;5116586;28;20456;-62
2022/07/24 00:07:44;;;;;;;1.63;1.00;;;18.30;99.90;;;;;;5116602;28;20452;-62
2022/07/24 00:10:12;;;;;;;1.90;1.13;;;18.30;99.90;;;;;;5116420;28;20848;-62
2022/07/24 00:12:38;;;;;;;2.03;1.20;;;18.30;99.90;;;;;;5116295;28;20445;-62
2022/07/24 00:15:08;;;;;;;2.00;1.10;;;18.30;99.90;;;;;;5116252;28;20477;-62
2022/07/24 00:17:34;;;;;;;3.07;1.53;;;18.10;99.90;;;;;;5116155;28;20544;-62
2022/07/24 00:20:01;;;;;;;1.53;1.43;;;17.80;99.90;;;;;;5116228;28;20465;-62
2022/07/24 00:22:27;;;;;;;2.60;1.60;;;17.80;99.90;;;;;;5116496;28;20445;-62
2022/07/24 00:24:54;;;;;;;1.73;1.57;;;17.70;99.90;;;;;;5116357;28;20445;-62
2022/07/24 00:27:20;;;;;;;1.93;1.70;;;17.80;99.90;;;;;;5116252;28;20532;-62
2022/07/24 00:29:47;;;;;;;2.30;2.13;;;17.70;99.90;;;;;;5116047;28;20484;-62
2022/07/24 00:32:14;;;;;;;1.93;1.80;;;17.60;99.90;;;;;;5115989;28;20949;-62
2022/07/24 00:34:41;;;;;;;2.10;1.90;;;17.60;99.90;;;;;;5116048;28;20495;-63
2022/07/24 00:37:08;;;;;;;4.23;2.63;;;17.70;99.90;;;;;;5115998;28;20445;-62
2022/07/24 00:39:34;;;;;;;1.70;1.60;;;17.60;99.90;;;;;;5115773;28;20446;-62
2022/07/24 00:42:01;;;;;;;1.73;1.63;;;17.60;99.90;;;;;;5115803;28;20889;-62
2022/07/24 00:44:27;;;;;;;1.30;1.20;;;17.50;99.90;;;;;;5115579;28;20536;-63
2022/07/24 00:46:54;;;;;;;1.33;1.23;;;17.40;99.90;;;;;;5115655;27;20532;-63
2022/07/24 00:49:22;;;;;;;1.97;1.33;;;17.40;99.90;;;;;;5115722;28;20446;-63
2022/07/24 00:51:50;;;;;;;1.10;0.90;;;17.40;99.90;;;;;;5115651;28;20454;-62
2022/07/24 00:54:19;;;;;;;2.07;1.50;;;17.30;99.90;;;;;;5115657;28;20473;-62
2022/07/24 00:56:48;;;;;;;1.47;1.23;;;17.30;99.90;;;;;;5115224;28;20499;-62
2022/07/24 00:59:15;;;;;;;2.90;1.43;;;17.30;99.90;;;;;;5115349;28;20959;-62
2022/07/24 01:01:42;;;;;;;2.20;1.13;;;17.20;99.90;;;;;;5115236;28;20999;-63
2022/07/24 01:04:08;;;;;;;4.13;1.67;;;17.20;99.90;;;;;;5115422;28;20809;-63
2022/07/24 01:06:36;;;;;;;1.50;1.40;;;17.20;99.90;;;;;;5115362;28;20451;-62
2022/07/24 01:09:03;;;;;;;1.70;1.43;;;17.20;99.90;;;;;;5115212;28;20446;-62
2022/07/24 01:11:30;;;;;;;2.10;1.47;;;17.20;99.90;;;;;;5115053;28;20819;-62
2022/07/24 01:13:57;;;;;;;2.07;1.50;;;17.00;99.90;;;;;;5115126;28;20483;-63
2022/07/24 01:16:23;;;;;;;1.80;1.40;;;17.00;99.90;;;;;;5115326;28;20477;-62
2022/07/24 01:18:50;;;;;;;3.07;2.07;;;17.10;99.90;;;;;;5115213;28;20900;-62
2022/07/24 01:21:18;;;;;;;4.43;2.83;;;17.00;99.90;;;;;;5114968;28;20839;-62
2022/07/24 01:23:44;;;;;;;3.83;3.30;;;16.60;99.90;;;;;;5114995;28;20446;-63
2022/07/24 01:26:11;;;;;;;5.17;3.47;;;16.40;99.90;;;;;;5114779;28;20541;-62
2022/07/24 01:28:38;;;;;;;4.63;3.40;;;16.40;99.90;;;;;;5115076;28;20456;-62
2022/07/24 01:31:05;;;;;;;5.00;3.17;;;16.20;99.90;;;;;;5114868;28;20452;-63
2022/07/24 01:33:31;;;;;;;5.67;3.17;;;16.20;99.90;;;;;;5114850;28;20446;-62
2022/07/24 01:35:58;;;;;;;7.10;3.37;;;16.10;99.90;;;;;;5114693;28;20960;-63
2022/07/24 01:38:25;;;;;;;6.70;2.77;;;16.10;99.90;;;;;;5114568;28;20507;-63
2022/07/24 01:40:52;;;;;;;3.20;2.87;;;15.90;99.90;;;;;;5114422;28;20477;-62
2022/07/24 01:43:19;;;;;;;3.33;2.97;;;15.60;99.90;;;;;;5114718;28;20452;-62
2022/07/24 01:45:45;;;;;;;3.13;2.20;;;15.60;99.90;;;;;;5114402;28;20970;-62
2022/07/24 01:48:12;;;;;;;3.00;2.10;;;15.60;99.90;;;;;;5114584;28;20540;-62
2022/07/24 01:50:38;;;;;;;2.60;1.83;;;15.80;99.90;;;;;;5114435;28;20480;-62
2022/07/24 01:53:05;;;;;;;1.70;1.60;;;16.00;99.90;;;;;;5114293;28;20446;-63
2022/07/24 01:55:33;;;;;;;3.20;1.73;;;16.20;99.90;;;;;;5114327;28;20561;-62
2022/07/24 01:57:59;;;;;;;5.50;2.27;;;16.30;99.90;;;;;;5114432;28;20452;-62
2022/07/24 02:00:26;;;;;;;2.00;1.80;;;16.30;99.90;;;;;;5114173;28;20475;-62
2022/07/24 02:02:52;;;;;;;2.03;1.83;;;16.30;99.90;;;;;;5114245;28;20452;-62
2022/07/24 02:05:19;;;;;;;3.87;1.73;;;16.20;99.90;;;;;;5114136;28;20445;-62
2022/07/24 02:07:45;;;;;;;1.83;1.73;;;16.00;99.90;;;;;;5114064;28;20937;-62
2022/07/24 02:10:14;;;;;;;1.87;1.50;;;16.00;99.90;;;;;;5114209;28;20446;-63
2022/07/24 02:12:41;;;;;;;2.90;1.67;;;15.90;99.90;;;;;;5114060;28;20449;-62
2022/07/24 02:15:09;;;;;;;2.23;1.60;;;16.00;99.90;;;;;;5114013;28;20456;-62
2022/07/24 02:17:36;;;;;;;1.77;1.30;;;16.10;99.90;;;;;;5113919;28;20445;-62
2022/07/24 02:20:03;;;;;;;3.23;1.87;;;16.10;99.90;;;;;;5113741;28;20544;-62
2022/07/24 02:22:29;;;;;;;2.43;1.93;;;15.90;99.90;;;;;;5113686;28;20545;-62
2022/07/24 02:24:56;;;;;;;2.13;1.50;;;15.60;99.90;;;;;;5114000;28;20544;-62
2022/07/24 02:27:22;;;;;;;1.73;1.50;;;15.30;99.90;;;;;;5113456;28;20891;-62
2022/07/24 02:29:50;;;;;;;1.80;1.70;;;15.40;99.90;;;;;;5113800;28;20449;-62
2022/07/24 02:32:16;;;;;;;2.10;2.00;;;15.50;99.90;;;;;;5113646;28;20449;-62
2022/07/24 02:34:43;;;;;;;1.40;1.30;;;15.60;99.90;;;;;;5113708;28;20445;-62
2022/07/24 02:37:09;;;;;;;1.83;1.73;;;15.60;99.90;;;;;;5113813;28;20452;-62
2022/07/24 02:39:36;;;;;;;2.23;1.93;;;15.60;99.90;;;;;;5113472;28;21003;-62
2022/07/24 02:42:02;;;;;;;2.60;1.50;;;15.50;99.90;;;;;;5113442;28;20564;-62
2022/07/24 02:44:29;;;;;;;1.47;1.37;;;15.40;99.90;;;;;;5113490;28;20451;-62
2022/07/24 02:46:57;;;;;;;1.40;1.30;;;15.40;99.90;;;;;;5113495;28;20891;-62
2022/07/24 02:49:23;;;;;;;2.07;1.77;;;15.30;99.90;;;;;;5113313;28;20442;-62
2022/07/24 02:51:50;;;;;;;1.77;1.63;;;15.50;99.90;;;;;;5113497;28;20442;-62
2022/07/24 02:54:16;;;;;;;1.90;1.80;;;15.60;99.90;;;;;;5113469;28;20445;-62
2022/07/24 02:56:43;;;;;;;1.67;1.57;;;15.70;99.90;;;;;;5113190;28;20481;-62
2022/07/24 02:59:10;;;;;;;1.83;1.73;;;15.70;99.90;;;;;;5113452;28;20473;-62
2022/07/24 03:01:36;;;;;;;2.53;1.70;;;15.60;99.90;;;;;;5113115;28;20474;-62
2022/07/24 03:04:04;;;;;;;1.93;1.70;;;15.60;99.90;;;;;;5113228;28;20852;-62
2022/07/24 03:06:31;;;;;;;2.00;1.90;;;15.20;99.90;;;;;;5113448;28;20881;-62
2022/07/24 03:08:57;;;;;;;1.70;1.60;;;15.30;99.90;;;;;;5113406;28;20444;-63
2022/07/24 03:11:24;;;;;;;2.67;1.97;;;14.90;99.90;;;;;;5113272;28;20976;-63
2022/07/24 03:13:50;;;;;;;2.93;1.50;;;14.80;99.90;;;;;;5113287;28;20540;-62
2022/07/24 03:16:17;;;;;;;1.70;1.60;;;14.80;99.90;;;;;;5113205;28;20451;-62
2022/07/24 03:18:48;;;;;;;2.00;1.83;;;14.70;99.90;;;;;;5113105;28;20948;-62
2022/07/24 03:21:16;;;;;;;1.83;1.73;;;14.90;99.90;;;;;;5113139;28;20473;-62
2022/07/24 03:23:43;;;;;;;3.93;2.10;;;15.10;99.90;;;;;;5113263;28;20446;-62
2022/07/24 03:26:10;;;;;;;2.73;2.03;;;15.20;99.90;;;;;;5113117;28;20446;-62
2022/07/24 03:28:36;;;;;;;2.20;1.93;;;15.00;99.90;;;;;;5113061;28;20983;-62
2022/07/24 03:31:03;;;;;;;3.10;2.00;;;14.80;99.90;;;;;;5112947;28;20456;-62
2022/07/24 03:33:30;;;;;;;2.77;2.10;;;14.80;99.90;;;;;;5113198;28;20798;-62
2022/07/24 03:35:56;;;;;;;1.93;1.40;;;14.80;99.90;;;;;;5113129;28;20454;-62
2022/07/24 03:38:24;;;;;;;2.10;1.90;;;14.50;99.90;;;;;;5113756;28;20545;-62
2022/07/24 03:40:51;;;;;;;1.80;1.70;;;14.20;99.90;;;;;;5116861;28;20477;-62
2022/07/24 03:43:17;;;;;;;2.07;1.97;;;14.10;99.90;;;;;;5116923;28;20548;-62
2022/07/24 03:45:44;;;;;;;4.40;2.03;;;14.10;99.90;;;;;;5116859;28;20599;-62
2022/07/24 03:48:10;;;;;;;4.17;2.00;;;14.10;99.90;;;;;;5117032;28;20449;-62
2022/07/24 03:50:37;;;;;;;2.20;1.93;;;14.20;99.90;;;;;;5116787;28;20449;-62
2022/07/24 03:53:03;;;;;;;2.27;2.07;;;14.30;99.90;;;;;;5116579;28;20445;-62
2022/07/24 03:55:31;;;;;;;2.70;2.50;;;14.10;99.90;;;;;;5116507;28;20476;-62
2022/07/24 03:57:57;;;;;;;2.13;2.03;;;14.20;99.90;;;;;;5116559;28;20445;-62
2022/07/24 04:00:24;;;;;;;2.00;1.90;;;14.30;99.90;;;;;;5116643;28;20532;-62
2022/07/24 04:02:50;;;;;;;2.00;1.90;;;14.10;99.90;;;;;;5116487;28;20964;-62
2022/07/24 04:05:17;;;;;;;2.43;2.10;;;14.10;99.90;;;;;;5116754;28;20816;-62
2022/07/24 04:07:43;;;;;;;4.47;2.17;;;14.10;99.90;;;;;;5116662;28;20936;-62
2022/07/24 04:10:10;;;;;;;2.13;1.60;;;14.20;99.90;;;;;;5116604;28;20520;-62
2022/07/24 04:12:38;;;;;;;2.37;1.80;;;14.30;99.90;;;;;;5116362;28;20452;-62
2022/07/24 04:15:05;;;;;;;2.37;1.90;;;14.40;99.90;;;;;;5116334;28;20965;-62
2022/07/24 04:17:32;;;;;;;2.17;1.93;;;14.60;99.90;;;;;;5116489;28;20441;-62
2022/07/24 04:19:58;;;;;;;1.90;1.80;;;14.70;99.90;;;;;;5116153;28;20983;-62
2022/07/24 04:22:25;;;;;;;1.87;1.77;;;14.70;99.90;;;;;;5116094;28;20481;-62
2022/07/24 04:24:51;;;;;;;2.40;2.20;;;14.90;99.90;;;;;;5116088;28;20452;-62
2022/07/24 04:27:18;;;;;;;2.40;2.20;;;14.90;99.90;;;;;;5115955;28;20452;-62
2022/07/24 04:29:46;;;;;;;1.93;1.70;;;15.00;99.90;;;;;;5116158;28;20450;-63
2022/07/24 04:32:12;;;;;;;2.13;2.03;;;15.10;99.90;;;;;;5116064;28;20808;-62
2022/07/24 04:34:39;;;;;;;2.17;2.07;;;15.20;99.90;;;;;;5116030;28;20534;-62
2022/07/24 04:37:05;;;;;;;2.10;2.00;;;15.30;99.90;;;;;;5115911;28;20532;-62
2022/07/24 04:39:32;;;;;;;2.60;2.10;;;15.40;99.90;;;;;;5115817;28;20445;-62
2022/07/24 04:41:58;;;;;;;3.37;2.17;;;15.60;99.90;;;;;;5115553;28;20901;-62
2022/07/24 04:44:24;;;;;;;2.37;2.17;;;15.60;99.90;;;;;;5115843;28;20454;-62
2022/07/24 04:46:52;;;;;;;2.40;2.20;;;15.80;99.90;;;;;;5115798;28;20446;-62
2022/07/24 04:49:19;;;;;;;2.43;1.90;;;16.00;99.90;;;;;;5115345;28;20456;-62
2022/07/24 04:51:45;;;;;;;2.40;2.20;;;16.20;99.90;;;;;;5115520;28;20445;-62
2022/07/24 04:54:12;;;;;;;2.33;2.20;;;16.40;99.90;;;;;;5115506;28;20980;-62
2022/07/24 04:56:38;;;;;;;2.40;2.30;;;16.60;99.90;;;;;;5115263;28;20500;-62
2022/07/24 04:59:05;;;;;;;1.70;1.60;;;16.70;99.90;;;;;;5115659;28;20477;-62
2022/07/24 05:01:31;;;;;;;2.10;1.90;;;16.90;99.90;;;;;;5115446;28;20473;-62
2022/07/24 05:03:59;;;;;;;2.33;2.03;;;17.00;99.90;;;;;;5115396;28;20446;-62
2022/07/24 05:06:26;;;;;;;2.20;1.93;;;17.20;99.90;;;;;;5115327;28;20453;-62
2022/07/24 05:08:52;;;;;;;1.97;1.80;;;17.30;99.90;;;;;;5115263;28;20542;-63
2022/07/24 05:11:19;;;;;;;2.13;2.03;;;17.40;99.90;;;;;;5115128;28;20972;-63
2022/07/24 05:13:45;;;;;;;2.33;1.60;;;17.50;99.90;;;;;;5115400;28;20541;-62
2022/07/24 05:16:12;;;;;;;1.87;1.77;;;17.60;99.90;;;;;;5115271;28;20533;-62
2022/07/24 05:18:38;;;;;;;1.67;1.50;;;17.70;99.90;;;;;;5115192;28;20449;-62
2022/07/24 05:21:07;;;;;;;1.83;1.47;;;17.80;99.90;;;;;;5114870;28;20502;-62
2022/07/24 05:23:34;;;;;;;1.87;1.50;;;17.90;99.90;;;;;;5114959;28;20446;-62
2022/07/24 05:26:00;;;;;;;2.10;1.53;;;18.00;99.90;;;;;;5115146;28;20824;-63
2022/07/24 05:28:27;;;;;;;2.30;1.60;;;18.20;99.90;;;;;;5115113;28;20441;-62
2022/07/24 05:30:53;;;;;;;2.23;2.00;;;18.40;99.90;;;;;;5114964;28;20940;-62
2022/07/24 05:33:19;;;;;;;2.17;1.40;;;18.50;99.90;;;;;;5114806;28;20448;-62
2022/07/24 05:35:46;;;;;;;1.63;1.53;;;18.60;99.90;;;;;;5114751;28;20446;-62
2022/07/24 05:38:14;;;;;;;4.30;1.43;;;18.80;99.90;;;;;;5114558;28;20448;-62
2022/07/24 05:40:40;;;;;;;1.30;1.20;;;19.00;99.90;;;;;;5114736;28;20448;-62
2022/07/24 05:43:07;;;;;;;1.40;1.30;;;19.10;99.90;;;;;;5114575;28;20488;-62
2022/07/24 05:45:33;;;;;;;2.20;1.80;;;19.20;99.90;;;;;;5114636;28;20801;-62
2022/07/24 05:48:00;;;;;;;1.63;1.53;;;19.40;99.90;;;;;;5114558;28;20456;-62
2022/07/24 05:50:26;;;;;;;1.43;1.33;;;19.40;99.90;;;;;;5114439;28;20445;-62
2022/07/24 05:52:53;;;;;;;1.37;1.17;;;19.50;99.90;;;;;;5114356;28;20979;-62
2022/07/24 05:55:20;;;;;;;2.13;0.90;;;19.70;99.90;;;;;;5114328;28;20446;-62
2022/07/24 05:57:47;;;;;;;1.90;1.60;;;19.70;99.90;;;;;;5114452;28;20453;-62
2022/07/24 06:00:15;;;;;;;1.47;1.10;;;19.90;99.90;;;;;;5114310;28;20540;-62
2022/07/24 06:02:41;;;;;;;3.73;1.30;;;20.00;99.90;;;;;;5113359;28;20488;-62
2022/07/24 06:05:08;;;;;;;1.87;1.17;;;20.10;99.90;;;;;;5114080;28;20873;-62
2022/07/24 06:07:34;;;;;;;2.97;1.30;;;20.20;99.90;;;;;;5114291;28;20540;-62
2022/07/24 06:10:01;;;;;;;1.20;1.10;;;20.20;99.90;;;;;;5114225;28;20446;-62
2022/07/24 06:12:29;;;;;;;2.60;0.97;;;20.20;99.90;;;;;;5114001;28;20452;-62
2022/07/24 06:14:55;;;;;;;1.50;1.00;;;20.30;99.90;;;;;;5114041;28;20536;-62
2022/07/24 06:17:22;;;;;;;1.00;0.90;;;20.30;99.90;;;;;;5113965;28;20624;-62
2022/07/24 06:19:48;;;;;;;1.83;1.27;;;20.30;99.90;;;;;;5113778;28;20540;-62
2022/07/24 06:22:15;;;;;;;1.20;0.93;;;20.30;99.90;;;;;;5113785;28;20477;-62
2022/07/24 06:24:41;;;;;;;1.33;1.10;;;20.40;99.90;;;;;;5113977;28;20446;-62
2022/07/24 06:27:08;;;;;;;1.23;0.90;;;20.50;99.90;;;;;;5113906;28;20545;-62
2022/07/24 06:29:35;;;;;;;2.00;0.97;;;20.50;99.90;;;;;;5113821;28;20453;-62
2022/07/24 06:32:02;;;;;;;0.80;0.80;;;20.60;99.90;;;;;;5113635;28;20445;-62
2022/07/24 06:34:28;;;;;;;1.23;1.00;;;20.60;99.90;;;;;;5113510;28;20452;-62
2022/07/24 06:36:55;;;;;;;1.10;1.00;;;20.60;99.90;;;;;;5113727;28;20442;-63
2022/07/24 06:39:21;;;;;;;2.60;1.10;;;20.70;99.90;;;;;;5113592;28;20452;-62
2022/07/24 06:41:48;;;;;;;2.33;1.20;;;20.70;99.90;;;;;;5113458;28;20820;-62
2022/07/24 06:44:14;;;;;;;1.20;1.10;;;20.80;99.90;;;;;;5113440;28;21002;-62
2022/07/24 06:46:42;;;;;;;5.07;1.30;;;20.90;99.90;;;;;;5113539;28;20554;-62
2022/07/24 06:49:09;;;;;;;1.00;0.90;;;20.90;99.90;;;;;;5113348;28;20544;-62
2022/07/24 06:51:35;;;;;;;1.30;1.00;;;20.90;99.90;;;;;;5113469;28;20484;-62
2022/07/24 06:54:02;;;;;;;1.20;1.00;;;21.00;99.90;;;;;;5113628;28;20940;-62
2022/07/24 06:56:28;;;;;;;1.30;1.20;;;21.00;99.90;;;;;;5113236;28;20481;-62
2022/07/24 06:58:55;;;;;;;1.20;1.10;;;21.00;99.90;;;;;;5113463;28;20455;-62
2022/07/24 07:01:21;;;;;;;1.13;1.03;;;21.10;99.90;;;;;;5113237;28;20449;-62
2022/07/24 07:03:49;;;;;;;1.67;1.13;;;21.20;99.90;;;;;;5113464;28;20492;-62
2022/07/24 07:06:16;;;;;;;3.43;1.10;;;21.00;99.90;;;;;;5113321;28;20456;-62
2022/07/24 07:08:42;;;;;;;1.70;1.27;;;21.20;99.90;;;;;;5113137;28;20561;-62
2022/07/24 07:11:09;;;;;;;2.73;1.10;;;21.20;99.90;;;;;;5113245;28;20467;-62
2022/07/24 07:13:36;;;;;;;1.23;1.13;;;21.30;99.90;;;;;;5116110;28;20924;-62
2022/07/24 07:16:03;;;;;;;1.93;1.10;;;21.40;99.90;;;;;;5117342;28;20452;-62
2022/07/24 07:18:29;;;;;;;2.07;1.03;;;21.40;99.90;;;;;;5117540;28;20449;-62
2022/07/24 07:20:57;;;;;;;1.73;1.60;;;21.50;99.90;;;;;;5117301;28;20928;-62
2022/07/24 07:23:26;;;;;;;1.00;0.90;;;21.50;99.90;;;;;;5117260;28;20815;-62
2022/07/24 07:25:53;;;;;;;1.80;1.00;;;21.20;99.90;;;;;;5117173;28;20959;-62
2022/07/24 07:28:19;;;;;;;1.30;0.80;;;21.30;99.90;;;;;;5117083;28;20956;-62
2022/07/24 07:30:46;;;;;;;1.30;0.90;;;21.40;99.90;;;;;;5117075;28;20808;-62
2022/07/24 07:33:13;;;;;;;1.67;0.90;;;21.50;99.90;;;;;;5117215;28;20492;-62
2022/07/24 07:35:39;;;;;;;1.57;1.03;;;21.60;99.90;;;;;;5117076;28;20445;-62
2022/07/24 07:38:07;;;;;;;1.30;1.10;;;21.70;99.90;;;;;;5116998;28;20538;-62
2022/07/24 07:40:34;;;;;;;0.80;0.80;;;21.80;99.90;;;;;;5116921;28;20442;-62
2022/07/24 07:43:01;;;;;;;1.20;1.10;;;21.70;99.90;;;;;;5116680;28;21047;-62
2022/07/24 07:45:28;;;;;;;1.40;0.90;;;21.80;99.90;;;;;;5116699;28;20441;-62
2022/07/24 07:47:54;;;;;;;1.67;0.80;;;21.90;99.90;;;;;;5116976;28;20445;-62
2022/07/24 07:50:21;;;;;;;1.63;1.00;;;22.00;99.90;;;;;;5116864;28;20445;-62
2022/07/24 07:52:47;;;;;;;0.80;0.80;;;22.00;99.90;;;;;;5116778;28;20451;-62
2022/07/24 07:55:15;;;;;;;1.57;1.00;;;22.10;99.90;;;;;;5116446;28;20951;-62
2022/07/24 07:57:43;;;;;;;1.30;1.10;;;22.30;99.90;;;;;;5117169;28;20987;-62
2022/07/24 08:00:10;;;;;;;1.70;1.10;;;22.60;99.90;;;;;;5116780;28;20441;-62
2022/07/24 08:02:37;;;;;;;1.00;0.83;;;22.80;99.90;;;;;;5116194;28;20465;-62
2022/07/24 08:05:04;;;;;;;2.17;1.00;;;23.00;99.90;;;;;;5116536;28;20456;-62
2022/07/24 08:07:30;;;;;;;2.73;0.87;;;23.10;99.90;;;;;;5116439;28;20456;-62
2022/07/24 08:09:57;;;;;;;2.90;1.00;;;23.20;99.90;;;;;;5116408;28;20812;-62
2022/07/24 08:12:24;;;;;;;0.90;0.90;;;23.30;99.90;;;;;;5116166;28;20456;-62
2022/07/24 08:14:51;;;;;;;1.40;0.90;;;23.40;99.90;;;;;;5116416;28;20445;-62
2022/07/24 08:17:17;;;;;;;0.90;0.90;;;23.50;99.90;;;;;;5116323;28;20445;-62
2022/07/24 08:19:45;;;;;;;1.93;1.00;;;23.40;99.90;;;;;;5116188;28;20536;-62
2022/07/24 08:22:12;;;;;;;0.80;0.80;;;23.60;99.90;;;;;;5115893;28;20469;-62
2022/07/24 08:24:39;;;;;;;1.10;1.00;;;23.70;99.90;;;;;;5115113;28;20454;-62
2022/07/24 08:27:06;;;;;;;0.90;0.77;;;23.70;99.90;;;;;;5116025;28;20499;-62
2022/07/24 08:29:34;;;;;;;2.23;1.20;;;23.80;99.90;;;;;;5116180;28;20540;-62
2022/07/24 08:32:01;;;;;;;1.00;0.90;;;23.70;99.90;;;;;;5115984;28;20540;-62
2022/07/24 08:34:28;;;;;;;1.97;0.90;;;23.60;99.90;;;;;;5115948;28;20449;-62
2022/07/24 08:36:54;;;;;;;1.40;1.00;;;23.70;99.90;;;;;;5115929;28;21024;-62
2022/07/24 08:39:21;;;;;;;0.80;0.80;;;23.70;99.90;;;;;;5115574;28;20936;-62
2022/07/24 08:41:48;;;;;;;1.00;0.90;;;23.60;99.90;;;;;;5115846;28;20441;-62
2022/07/24 08:44:14;;;;;;;1.90;1.17;;;23.80;99.90;;;;;;5115732;28;20567;-62
2022/07/24 08:46:43;;;;;;;0.80;0.80;;;23.90;99.90;;;;;;5115854;28;20817;-62
2022/07/24 08:49:12;;;;;;;1.37;1.20;;;24.00;99.90;;;;;;5115596;28;20964;-62
2022/07/24 08:51:40;;;;;;;1.23;0.90;;;23.90;99.90;;;;;;5115515;28;20471;-62
2022/07/24 08:54:07;;;;;;;0.90;0.90;;;24.00;99.90;;;;;;5115524;28;20450;-62
2022/07/24 08:56:36;;;;;;;1.20;0.83;;;24.10;99.90;;;;;;5115329;28;20981;-62
2022/07/24 08:59:03;;;;;;;3.23;1.10;;;24.20;99.90;;;;;;5115527;28;20452;-62
2022/07/24 09:01:30;;;;;;;1.00;0.80;;;24.20;99.90;;;;;;5115431;28;20801;-62
2022/07/24 09:03:57;;;;;;;1.60;0.90;;;24.40;99.90;;;;;;5115233;28;20485;-62
2022/07/24 09:06:24;;;;;;;3.20;1.00;;;24.50;99.90;;;;;;5115213;28;20452;-62
2022/07/24 09:09:02;;;;;;;0.77;0.73;;;24.50;99.90;;;;;;5115400;28;20464;-62
2022/07/24 09:11:29;;;;;;;1.53;0.90;;;24.50;99.90;;;;;;5115024;28;20534;-62
2022/07/24 09:16:46;;;;;;;1.00;0.80;;;24.50;99.40;;;;;;5115085;28;20440;-62
2022/07/24 09:19:16;;;;;;;1.20;1.07;;;24.60;98.60;;;;;;5114831;28;20452;-62
2022/07/24 09:21:44;;;;;;;1.63;1.20;;;24.70;99.40;;;;;;5115100;28;20503;-62
2022/07/24 09:24:15;;;;;;;1.40;1.30;;;24.60;99.00;;;;;;5114856;28;20580;-62
2022/07/24 09:26:45;;;;;;;1.10;0.87;;;24.80;99.90;;;;;;5114847;28;20452;-62
2022/07/24 09:29:13;;;;;;;1.10;1.00;;;25.00;98.90;;;;;;5114775;28;20449;-62
2022/07/24 09:31:51;;;;;;;1.40;1.00;;;25.00;99.90;;;;;;5114309;28;20452;-62
2022/07/24 09:34:19;;;;;;;0.80;0.80;;;24.70;98.50;;;;;;5114789;28;20441;-62
2022/07/24 09:36:56;;;;;;;1.03;0.93;;;24.80;98.80;;;;;;5113729;28;20891;-62
2022/07/24 09:39:24;;;;;;;1.80;0.83;;;25.10;97.60;;;;;;5114719;28;20468;-62
2022/07/24 09:41:52;;;;;;;2.07;1.00;;;25.30;96.90;;;;;;5114445;28;20445;-62
2022/07/24 09:44:20;;;;;;;1.03;0.80;;;25.30;97.00;;;;;;5114570;28;20485;-62
2022/07/24 09:46:48;;;;;;;1.20;1.03;;;25.40;96.20;;;;;;5114504;28;20857;-62
2022/07/24 09:49:22;;;;;;;1.20;1.10;;;25.30;96.10;;;;;;5114296;28;20785;-61
2022/07/24 09:52:07;;;;;;;2.70;0.80;;;25.50;96.60;;;;;;5114384;28;20445;-62
2022/07/24 09:54:35;;;;;;;0.90;0.80;;;25.70;95.30;;;;;;5114244;28;20450;-62
2022/07/24 09:57:17;;;;;;;1.10;1.00;;;25.80;93.80;;;;;;5114173;27;20507;-62
2022/07/24 09:59:46;;;;;;;1.40;1.20;;;26.00;95.00;;;;;;5114276;28;20506;-62
2022/07/24 10:02:14;;;;;;;1.37;0.97;;;26.10;93.20;;;;;;5114171;28;20532;-62
2022/07/24 10:04:45;;;;;;;1.10;1.00;;;26.20;93.90;;;;;;5113809;28;20478;-62
2022/07/24 10:07:13;;;;;;;1.00;0.90;;;26.20;90.80;;;;;;5114169;28;20446;-62
2022/07/24 10:09:42;;;;;;;1.10;1.00;;;26.30;91.50;;;;;;5114138;28;20507;-62
2022/07/24 10:12:13;;;;;;;1.57;1.47;;;26.50;91.70;;;;;;5114019;28;20564;-62
2022/07/24 10:14:40;;;;;;;1.23;1.13;;;26.40;91.10;;;;;;5114052;28;20468;-62
2022/07/24 10:17:09;;;;;;;1.20;1.10;;;26.50;91.00;;;;;;5113889;28;20445;-62
2022/07/24 10:19:41;;;;;;;1.43;0.90;;;26.60;91.00;;;;;;5113788;28;20495;-62
2022/07/24 10:22:12;;;;;;;1.30;1.20;;;26.30;90.40;;;;;;5113949;28;20846;-62
2022/07/24 10:24:54;;;;;;;1.30;1.20;;;25.80;92.50;;;;;;5113825;28;20560;-63
2022/07/24 10:27:29;;;;;;;1.10;0.87;;;26.10;92.90;;;;;;5113778;28;20506;-62
2022/07/24 10:29:59;;;;;;;1.40;1.30;;;26.30;92.00;;;;;;5113497;28;20445;-62
2022/07/24 10:32:26;;;;;;;1.73;1.00;;;26.20;92.70;;;;;;5113788;28;20536;-62
2022/07/24 10:35:02;;;;;;;1.23;1.13;;;26.30;92.40;;;;;;5113752;28;20570;-62
2022/07/24 10:37:39;;;;;;;1.20;1.10;;;26.40;93.50;;;;;;5113670;28;20450;-62
2022/07/24 10:40:19;;;;;;;1.20;1.10;;;26.60;91.40;;;;;;5113551;28;20445;-62
2022/07/24 10:43:17;;;;;;;2.00;1.20;;;26.90;91.40;;;;;;5113666;28;20450;-63
2022/07/24 10:45:45;;;;;;;1.43;0.90;;;27.00;92.20;;;;;;5113407;28;20944;-62
2022/07/24 10:48:29;;;;;;;1.60;1.33;;;27.10;91.40;;;;;;5113030;28;20446;-62
2022/07/24 10:51:08;;;;;;;1.10;1.03;;;27.00;92.20;;;;;;5113589;28;20553;-63
2022/07/24 10:53:52;;;;;;;1.13;1.03;;;27.40;91.70;;;;;;5113719;28;20514;-63
2022/07/24 10:56:21;;;;;;;1.50;0.97;;;27.50;90.90;;;;;;5113076;28;20505;-63
2022/07/24 10:58:58;;;;;;;1.20;1.10;;;27.50;90.20;;;;;;5113217;28;20437;-63
2022/07/24 11:01:33;;;;;;;1.70;1.50;;;27.50;90.00;;;;;;5113381;28;20528;-63
2022/07/24 11:04:00;;;;;;;1.00;0.90;;;27.70;90.40;;;;;;5113224;28;20476;-63
2022/07/24 11:06:41;;;;;;;1.67;1.10;;;27.90;89.10;;;;;;5113347;28;20480;-63
2022/07/24 11:09:09;;;;;;;1.13;1.03;;;28.00;87.10;;;;;;5113226;28;20955;-63
2022/07/24 11:11:42;;;;;;;1.37;1.20;;;27.90;88.60;;;;;;5113046;28;20441;-63
2022/07/24 11:14:08;;;;;;;1.40;1.30;;;28.00;87.70;;;;;;5113333;28;20508;-63
2022/07/24 11:16:36;;;;;;;1.67;1.13;;;27.60;86.50;;;;;;5113227;28;20492;-63
2022/07/24 11:19:25;;;;;;;1.50;1.13;;;26.30;89.40;;;;;;5113071;28;20450;-63
2022/07/24 11:22:06;;;;;;;1.60;1.50;;;26.60;91.20;;;;;;5113551;28;20441;-63
2022/07/24 11:24:34;;;;;;;1.20;1.10;;;27.00;90.40;;;;;;5113167;28;20487;-63
2022/07/24 11:27:06;;;;;;;1.30;1.20;;;27.40;88.80;;;;;;5113002;28;20933;-63
2022/07/24 11:29:35;;;;;;;1.33;1.23;;;27.50;89.20;;;;;;5113014;28;20445;-63
2022/07/24 11:32:05;;;;;;;1.30;1.20;;;27.70;87.40;;;;;;5112896;28;20950;-63
2022/07/24 11:34:32;;;;;;;1.27;1.17;;;27.90;86.30;;;;;;5112966;28;20454;-64
2022/07/24 11:37:00;;;;;;;1.23;1.13;;;28.10;86.40;;;;;;5113250;28;20536;-63
2022/07/24 11:39:29;;;;;;;1.67;1.00;;;28.20;86.00;;;;;;5113237;28;20488;-63
2022/07/24 11:42:00;;;;;;;1.20;1.10;;;28.10;85.80;;;;;;5112873;28;20500;-63
2022/07/24 11:44:29;;;;;;;1.40;1.20;;;27.90;84.80;;;;;;5112684;28;20564;-63
2022/07/24 11:46:57;;;;;;;1.57;1.47;;;27.90;87.60;;;;;;5112772;28;20488;-63
2022/07/24 11:49:24;;;;;;;1.33;1.10;;;28.30;84.30;;;;;;5112678;28;20457;-63
2022/07/24 11:51:53;;;;;;;1.87;1.77;;;28.50;85.10;;;;;;5112769;28;20441;-63
2022/07/24 11:54:23;;;;;;;1.73;1.10;;;28.70;83.90;;;;;;5112730;28;20446;-63
2022/07/24 11:56:50;;;;;;;1.87;1.20;;;28.80;81.30;;;;;;5113041;28;20561;-63
2022/07/24 11:59:25;;;;;;;1.30;1.20;;;28.80;80.30;;;;;;5113230;28;20449;-63
2022/07/24 12:01:57;;;;;;;1.83;1.10;;;28.80;80.50;;;;;;5116606;28;20441;-63
2022/07/24 12:04:23;;;;;;;1.60;1.50;;;28.90;82.00;;;;;;5116628;28;20533;-63
2022/07/24 12:06:50;;;;;;;1.60;1.50;;;28.00;78.90;;;;;;5116561;28;20544;-63
2022/07/24 12:09:17;;;;;;;2.10;1.20;;;;;;;;;;5116407;28;20532;-63
2022/07/24 12:11:44;;;;;;;1.50;1.40;;;;;;;;;;5116230;28;20536;-64
2022/07/24 12:14:15;;;;;;;1.30;1.17;;;;;;;;;;5116204;28;20801;-63
2022/07/24 12:16:43;;;;;;;1.73;1.17;;;;;;;;;;5116368;28;20571;-63
2022/07/24 12:19:14;;;;;;;2.40;1.10;;;;;;;;;;5116268;28;20904;-63
2022/07/24 12:21:41;;;;;;;1.03;1.03;;;;;;;;;;5116097;28;20940;-63
2022/07/24 12:24:08;;;;;;;2.97;1.50;;;;;;;;;;5115904;28;20522;-63
2022/07/24 12:26:36;;;;;;;1.20;1.10;;;28.20;76.60;;;;;;5115913;28;20807;-63
2022/07/24 12:29:12;;;;;;;1.20;1.10;;;28.10;76.30;;;;;;5116058;28;20453;-63
2022/07/24 12:31:38;;;;;;;1.40;1.30;;;28.30;77.00;;;;;;5115910;28;20490;-63
2022/07/24 12:34:06;;;;;;;1.87;1.23;;;28.70;78.00;;;;;;5115853;28;20449;-63
2022/07/24 12:36:33;;;;;;;2.23;1.40;;;28.90;77.30;;;;;;5115864;28;20445;-63
2022/07/24 12:39:00;;;;;;;1.30;1.20;;;29.10;75.90;;;;;;5116270;28;20450;-63
2022/07/24 12:41:29;;;;;;;1.40;1.30;;;29.20;75.50;;;;;;5115835;28;20491;-63
2022/07/24 12:43:58;;;;;;;1.40;1.30;;;29.20;74.00;;;;;;5115724;28;20465;-63
2022/07/24 12:46:30;;;;;;;1.57;1.47;;;29.10;74.00;;;;;;5115759;28;20450;-63
2022/07/24 12:48:58;;;;;;;1.20;1.10;;;29.20;73.60;;;;;;5115569;28;20536;-63
2022/07/24 12:51:26;;;;;;;1.50;1.40;;;29.30;74.20;;;;;;5115468;28;20442;-63
2022/07/24 12:53:54;;;;;;;1.53;1.23;;;29.40;73.00;;;;;;5115771;28;20471;-63